Ulysses, Pennsylvania
Current Conditions -  °F | °C
As of 4:56 AM on Saturday 22 Nov 2014 (Local Time) from KELZ Reporting Station
Clear Clear  
Wind Chill:   Ceiling: Unl
Heat Index: 19°   Visibility: 10mi
Dew Point:   Wind: 10mph
Humidity: 57%   Direction: 230°SW
Pressure: 30.26"   Gusts: NA
Location:  41.9°N, 77.76°W
Report Text: KELZ 220956Z AUTO 23009KT 10SM CLR M07/M14 A3026 RMK AO2 SLP285 T10721144
Loading
Personal Weather Stations






























Interactive Weather Map New forecast layout! Learn more

10-Day Weather Forecast

Advertisements
Track Severe Weather on mobile